createdAt,value
2016-07-16T00:00:50.241Z,0
2016-07-16T00:01:50.277Z,0
2016-07-16T00:02:50.265Z,0
2016-07-16T00:03:50.261Z,0
2016-07-16T00:04:50.278Z,0
2016-07-16T00:05:50.285Z,0
2016-07-16T00:06:50.295Z,0
2016-07-16T00:07:50.319Z,0
2016-07-16T00:08:50.334Z,0
2016-07-16T00:09:50.313Z,0
2016-07-16T00:10:50.323Z,0
2016-07-16T00:11:50.327Z,0
2016-07-16T00:12:50.365Z,0
2016-07-16T00:13:50.387Z,0
2016-07-16T00:14:50.350Z,0
2016-07-16T00:15:50.374Z,0
2016-07-16T00:16:50.407Z,0
2016-07-16T00:17:50.397Z,0
2016-07-16T00:18:50.391Z,0
2016-07-16T00:19:50.398Z,0
2016-07-16T00:20:50.398Z,0
2016-07-16T00:21:50.416Z,0
2016-07-16T00:22:50.416Z,0
2016-07-16T00:23:50.409Z,0
2016-07-16T00:24:50.431Z,0
2016-07-16T00:25:50.438Z,0
2016-07-16T00:26:50.454Z,0
2016-07-16T00:27:50.447Z,0
2016-07-16T00:28:50.453Z,0
2016-07-16T00:29:50.496Z,0
2016-07-16T00:30:50.492Z,0
2016-07-16T00:31:51.158Z,0
2016-07-16T00:32:50.478Z,0
2016-07-16T00:33:50.534Z,0
2016-07-16T00:34:50.508Z,0
2016-07-16T00:35:50.524Z,0
2016-07-16T00:36:50.520Z,0
2016-07-16T00:37:50.545Z,0
2016-07-16T00:38:50.536Z,0
2016-07-16T00:39:50.552Z,0
2016-07-16T00:40:50.598Z,0
2016-07-16T00:41:50.605Z,0
2016-07-16T00:42:50.549Z,0
2016-07-16T00:43:50.569Z,0
2016-07-16T00:44:50.613Z,0
2016-07-16T00:45:50.612Z,0
2016-07-16T00:46:50.628Z,0
2016-07-16T00:47:50.628Z,0
2016-07-16T00:48:50.615Z,0
2016-07-16T00:49:50.653Z,0
2016-07-16T00:50:50.634Z,0
2016-07-16T00:51:50.658Z,0
2016-07-16T00:52:50.664Z,0
2016-07-16T00:53:50.646Z,0
2016-07-16T00:54:50.671Z,0
2016-07-16T00:55:50.701Z,0
2016-07-16T00:56:50.670Z,0
2016-07-16T00:57:50.676Z,0
2016-07-16T00:58:50.736Z,0
2016-07-16T00:59:50.737Z,0
2016-07-16T01:00:50.733Z,0
2016-07-16T01:01:50.727Z,0
2016-07-16T01:02:50.735Z,0
2016-07-16T01:03:50.756Z,0
2016-07-16T01:04:50.743Z,0
2016-07-16T01:05:50.759Z,0
2016-07-16T01:06:50.764Z,0
2016-07-16T01:07:50.770Z,0
2016-07-16T01:08:50.774Z,0
2016-07-16T01:09:50.762Z,0
2016-07-16T01:10:50.797Z,0
2016-07-16T01:11:50.810Z,0
2016-07-16T01:12:50.796Z,0
2016-07-16T01:13:50.803Z,0
2016-07-16T01:14:50.820Z,0
2016-07-16T01:15:50.813Z,0
2016-07-16T01:16:50.888Z,0
2016-07-16T01:17:50.852Z,0
2016-07-16T01:18:50.870Z,0
2016-07-16T01:19:50.836Z,0
2016-07-16T01:20:50.872Z,0
2016-07-16T01:21:50.896Z,0
2016-07-16T01:22:50.932Z,0
2016-07-16T01:23:50.902Z,0
2016-07-16T01:24:50.920Z,0
2016-07-16T01:25:50.914Z,0
2016-07-16T01:26:50.937Z,0
2016-07-16T01:27:50.924Z,0
2016-07-16T01:28:50.933Z,0
2016-07-16T01:29:50.952Z,0
2016-07-16T01:30:50.962Z,0
2016-07-16T01:31:50.950Z,0
2016-07-16T01:32:50.950Z,0
2016-07-16T01:33:50.981Z,0
2016-07-16T01:34:50.985Z,0
2016-07-16T01:35:51.002Z,0
2016-07-16T01:36:50.991Z,0
2016-07-16T01:37:50.980Z,0
2016-07-16T01:38:50.993Z,0
2016-07-16T01:39:51.016Z,0
2016-07-16T01:40:51.013Z,0
2016-07-16T01:41:51.051Z,0
2016-07-16T01:42:51.023Z,0
2016-07-16T01:43:51.031Z,0
2016-07-16T01:44:51.059Z,0
2016-07-16T01:45:51.055Z,0
2016-07-16T01:46:51.097Z,0
2016-07-16T01:47:51.092Z,0
2016-07-16T01:48:51.100Z,0
2016-07-16T01:49:51.088Z,0
2016-07-16T01:50:51.101Z,0
2016-07-16T01:51:51.131Z,0
2016-07-16T01:52:51.143Z,0
2016-07-16T01:53:51.115Z,0
2016-07-16T01:54:51.122Z,0
2016-07-16T01:55:51.144Z,0
2016-07-16T01:56:51.156Z,0
2016-07-16T01:57:51.344Z,0
2016-07-16T01:58:51.153Z,0
2016-07-16T01:59:51.155Z,0
2016-07-16T02:00:51.157Z,0
2016-07-16T02:01:51.197Z,0
2016-07-16T02:02:51.179Z,0
2016-07-16T02:03:51.212Z,0
2016-07-16T02:04:51.200Z,0
2016-07-16T02:05:51.199Z,0
2016-07-16T02:06:51.252Z,0
2016-07-16T02:07:51.240Z,0
2016-07-16T02:08:51.246Z,0
2016-07-16T02:09:51.246Z,0
2016-07-16T02:10:51.260Z,0
2016-07-16T02:11:51.272Z,0
2016-07-16T02:12:51.267Z,0
2016-07-16T02:13:51.264Z,0
2016-07-16T02:14:51.272Z,0
2016-07-16T02:15:51.282Z,0
2016-07-16T02:16:51.301Z,0
2016-07-16T02:17:51.306Z,0
2016-07-16T02:18:51.322Z,0
2016-07-16T02:19:51.323Z,0
2016-07-16T02:20:51.325Z,0
2016-07-16T02:21:51.336Z,0
2016-07-16T02:22:51.363Z,0
2016-07-16T02:23:52.071Z,0
2016-07-16T02:24:51.369Z,0
2016-07-16T02:25:51.363Z,0
2016-07-16T02:26:51.366Z,0
2016-07-16T02:27:51.391Z,0
2016-07-16T02:28:51.382Z,0
2016-07-16T02:29:51.372Z,0
2016-07-16T02:30:51.425Z,0
2016-07-16T02:31:51.399Z,0
2016-07-16T02:32:51.432Z,0
2016-07-16T02:33:51.436Z,0
2016-07-16T02:34:51.432Z,0
2016-07-16T02:35:51.465Z,0
2016-07-16T02:36:51.444Z,0
2016-07-16T02:37:51.482Z,0
2016-07-16T02:38:51.486Z,0
2016-07-16T02:39:51.472Z,0
2016-07-16T02:40:51.475Z,0
2016-07-16T02:41:51.480Z,0
2016-07-16T02:42:51.519Z,0
2016-07-16T02:43:51.480Z,0
2016-07-16T02:44:51.531Z,0
2016-07-16T02:45:51.520Z,0
2016-07-16T02:46:51.513Z,0
2016-07-16T02:47:51.519Z,0
2016-07-16T02:48:51.555Z,0
2016-07-16T02:49:51.525Z,0
2016-07-16T02:50:51.539Z,0
2016-07-16T02:51:51.546Z,0
2016-07-16T02:52:51.586Z,0
2016-07-16T02:53:51.578Z,0
2016-07-16T02:54:51.609Z,0
2016-07-16T02:55:51.618Z,0
2016-07-16T02:56:51.615Z,0
2016-07-16T02:57:51.610Z,0
2016-07-16T02:58:51.613Z,0
2016-07-16T02:59:51.621Z,0
2016-07-16T03:00:51.617Z,0
2016-07-16T03:01:51.632Z,0
2016-07-16T03:02:51.635Z,0
2016-07-16T03:03:51.652Z,0
2016-07-16T03:04:51.658Z,0
2016-07-16T03:05:51.649Z,0
2016-07-16T03:06:51.703Z,0
2016-07-16T03:07:51.682Z,0
2016-07-16T03:08:51.676Z,0
2016-07-16T03:09:51.681Z,0
2016-07-16T03:10:51.730Z,0
2016-07-16T03:11:51.729Z,0
2016-07-16T03:12:51.734Z,0
2016-07-16T03:13:51.721Z,0
2016-07-16T03:14:51.733Z,0
2016-07-16T03:15:51.741Z,0
2016-07-16T03:16:51.742Z,0
2016-07-16T03:17:51.764Z,0
2016-07-16T03:18:51.783Z,0
2016-07-16T03:19:51.805Z,0
2016-07-16T03:20:51.774Z,0
2016-07-16T03:21:51.768Z,0
2016-07-16T03:22:51.785Z,0
2016-07-16T03:23:51.831Z,0
2016-07-16T03:24:51.795Z,0
2016-07-16T03:25:51.823Z,0
2016-07-16T03:26:51.834Z,0
2016-07-16T03:27:51.851Z,0
2016-07-16T03:28:51.857Z,0
2016-07-16T03:29:51.854Z,0
2016-07-16T03:30:51.857Z,0
2016-07-16T03:31:51.892Z,0
2016-07-16T03:32:51.888Z,0
2016-07-16T03:33:51.899Z,0
2016-07-16T03:34:51.902Z,0
2016-07-16T03:35:51.903Z,0
2016-07-16T03:36:51.932Z,0
2016-07-16T03:37:51.903Z,0
2016-07-16T03:38:51.933Z,0
2016-07-16T03:39:51.945Z,0
2016-07-16T03:40:51.966Z,0
2016-07-16T03:41:51.983Z,0
2016-07-16T03:42:51.954Z,0
2016-07-16T03:43:51.948Z,0
2016-07-16T03:44:52.696Z,0
2016-07-16T03:45:52.009Z,0
2016-07-16T03:46:51.979Z,0
2016-07-16T03:47:51.983Z,0
2016-07-16T03:48:52.019Z,0
2016-07-16T03:49:52.007Z,0
2016-07-16T03:50:52.025Z,0
2016-07-16T03:51:52.017Z,0
2016-07-16T03:52:52.004Z,0
2016-07-16T03:53:52.035Z,0
2016-07-16T03:54:52.025Z,0
2016-07-16T03:55:52.082Z,0
2016-07-16T03:56:52.076Z,0
2016-07-16T03:57:52.064Z,0
2016-07-16T03:58:52.087Z,0
2016-07-16T03:59:52.079Z,0
2016-07-16T04:00:52.062Z,0
2016-07-16T04:01:52.094Z,0
2016-07-16T04:02:52.109Z,0
2016-07-16T04:03:52.111Z,0
2016-07-16T04:04:52.134Z,0
2016-07-16T04:05:52.121Z,0
2016-07-16T04:06:52.139Z,0
2016-07-16T04:07:52.145Z,0
2016-07-16T04:08:52.150Z,0
2016-07-16T04:09:52.158Z,0
2016-07-16T04:10:52.172Z,0
2016-07-16T04:11:52.183Z,0
2016-07-16T04:12:52.225Z,0
2016-07-16T04:13:52.189Z,0
2016-07-16T04:14:52.190Z,0
2016-07-16T04:15:52.203Z,0
2016-07-16T04:16:52.227Z,0
2016-07-16T04:17:52.230Z,0
2016-07-16T04:18:52.988Z,0
2016-07-16T04:19:52.253Z,0
2016-07-16T04:20:52.277Z,0
2016-07-16T04:21:52.272Z,0
2016-07-16T04:22:52.246Z,0
2016-07-16T04:23:52.257Z,0
2016-07-16T04:24:52.253Z,0
2016-07-16T04:25:52.261Z,4
2016-07-16T04:26:52.282Z,4
2016-07-16T04:27:52.283Z,4
2016-07-16T04:28:52.297Z,4
2016-07-16T04:29:52.315Z,4
2016-07-16T04:30:52.322Z,4
2016-07-16T04:31:52.315Z,4
2016-07-16T04:32:52.358Z,4
2016-07-16T04:33:52.333Z,4
2016-07-16T04:34:52.331Z,4
2016-07-16T04:35:52.370Z,4
2016-07-16T04:36:52.375Z,4
2016-07-16T04:37:52.363Z,4
2016-07-16T04:38:52.382Z,4
2016-07-16T04:39:52.373Z,4
2016-07-16T04:40:52.384Z,4
2016-07-16T04:41:52.413Z,4
2016-07-16T04:42:52.404Z,4
2016-07-16T04:43:52.404Z,4
2016-07-16T04:44:52.450Z,4
2016-07-16T04:45:52.448Z,0
2016-07-16T04:46:52.427Z,0
2016-07-16T04:47:52.436Z,0
2016-07-16T04:48:52.453Z,0
2016-07-16T04:49:52.438Z,0
2016-07-16T04:50:52.458Z,0
2016-07-16T04:51:52.466Z,0
2016-07-16T04:52:52.505Z,0
2016-07-16T04:53:52.503Z,0
2016-07-16T04:54:52.497Z,0
2016-07-16T04:55:52.496Z,0
2016-07-16T04:56:52.525Z,0
2016-07-16T04:57:52.518Z,0
2016-07-16T04:58:52.579Z,0
2016-07-16T04:59:52.530Z,0
2016-07-16T05:00:52.556Z,0
2016-07-16T05:01:52.553Z,4
2016-07-16T05:02:52.567Z,4
2016-07-16T05:03:52.556Z,4
2016-07-16T05:04:52.591Z,4
2016-07-16T05:05:52.586Z,4
2016-07-16T05:06:52.599Z,4
2016-07-16T05:07:52.588Z,4
2016-07-16T05:08:52.617Z,4
2016-07-16T05:09:52.610Z,4
2016-07-16T05:10:52.643Z,4
2016-07-16T05:11:52.623Z,4
2016-07-16T05:12:52.629Z,4
2016-07-16T05:13:52.675Z,4
2016-07-16T05:14:52.646Z,4
2016-07-16T05:15:52.636Z,4
2016-07-16T05:16:52.672Z,4
2016-07-16T05:17:52.680Z,8
2016-07-16T05:18:52.687Z,4
2016-07-16T05:19:52.668Z,4
2016-07-16T05:20:52.694Z,4
2016-07-16T05:21:52.693Z,4
2016-07-16T05:22:52.706Z,4
2016-07-16T05:23:52.727Z,4
2016-07-16T05:24:52.741Z,4
2016-07-16T05:25:52.750Z,4
2016-07-16T05:26:52.737Z,4
2016-07-16T05:27:52.761Z,4
2016-07-16T05:28:52.765Z,4
2016-07-16T05:29:52.771Z,4
2016-07-16T05:30:52.779Z,4
2016-07-16T05:31:52.772Z,4
2016-07-16T05:32:52.787Z,8
2016-07-16T05:33:52.809Z,8
2016-07-16T05:34:52.838Z,8
2016-07-16T05:35:52.806Z,8
2016-07-16T05:36:52.823Z,8
2016-07-16T05:37:52.850Z,8
2016-07-16T05:38:52.820Z,8
2016-07-16T05:39:52.851Z,4
2016-07-16T05:40:52.845Z,4
2016-07-16T05:41:52.884Z,4
2016-07-16T05:42:52.881Z,8
2016-07-16T05:43:52.906Z,8
2016-07-16T05:44:52.879Z,8
2016-07-16T05:45:52.891Z,8
2016-07-16T05:46:52.902Z,8
2016-07-16T05:47:52.877Z,8
2016-07-16T05:48:52.902Z,8
2016-07-16T05:49:52.933Z,8
2016-07-16T05:50:52.919Z,8
2016-07-16T05:51:52.948Z,8
2016-07-16T05:52:52.949Z,8
2016-07-16T05:53:52.939Z,8
2016-07-16T05:54:52.934Z,8
2016-07-16T05:55:52.933Z,8
2016-07-16T05:56:52.991Z,8
2016-07-16T05:57:52.964Z,8
2016-07-16T05:58:53.186Z,8
2016-07-16T05:59:52.987Z,8
2016-07-16T06:00:52.989Z,12
2016-07-16T06:01:53.047Z,12
2016-07-16T06:02:53.018Z,8
2016-07-16T06:03:53.037Z,8
2016-07-16T06:04:53.018Z,8
2016-07-16T06:05:53.029Z,8
2016-07-16T06:06:53.053Z,8
2016-07-16T06:07:53.080Z,8
2016-07-16T06:08:53.072Z,8
2016-07-16T06:09:53.066Z,8
2016-07-16T06:10:53.074Z,8
2016-07-16T06:11:53.102Z,12
2016-07-16T06:12:53.099Z,12
2016-07-16T06:13:53.076Z,12
2016-07-16T06:14:53.115Z,12
2016-07-16T06:15:53.093Z,8
2016-07-16T06:16:53.118Z,8
2016-07-16T06:17:53.110Z,12
2016-07-16T06:18:53.155Z,12
2016-07-16T06:19:53.139Z,12
2016-07-16T06:20:53.149Z,12
2016-07-16T06:21:53.169Z,12
2016-07-16T06:22:53.169Z,12
2016-07-16T06:23:53.190Z,12
2016-07-16T06:24:53.174Z,12
2016-07-16T06:25:53.182Z,12
2016-07-16T06:26:53.208Z,12
2016-07-16T06:27:53.218Z,12
2016-07-16T06:28:53.209Z,12
2016-07-16T06:29:53.215Z,16
2016-07-16T06:30:53.232Z,16
2016-07-16T06:31:53.262Z,16
2016-07-16T06:32:53.240Z,16
2016-07-16T06:33:53.268Z,16
2016-07-16T06:34:53.265Z,16
2016-07-16T06:35:53.242Z,16
2016-07-16T06:36:53.268Z,12
2016-07-16T06:37:53.295Z,12
2016-07-16T06:38:53.280Z,12
2016-07-16T06:39:53.276Z,16
2016-07-16T06:40:53.303Z,16
2016-07-16T06:41:53.307Z,16
2016-07-16T06:42:53.324Z,16
2016-07-16T06:43:53.348Z,16
2016-07-16T06:44:53.365Z,16
2016-07-16T06:45:53.348Z,20
2016-07-16T06:46:53.353Z,20
2016-07-16T06:47:53.387Z,16
2016-07-16T06:48:53.355Z,20
2016-07-16T06:49:53.375Z,20
2016-07-16T06:50:53.403Z,20
2016-07-16T06:51:53.395Z,24
2016-07-16T06:52:54.109Z,20
2016-07-16T06:53:53.404Z,20
2016-07-16T06:54:53.427Z,20
2016-07-16T06:55:53.431Z,20
2016-07-16T06:56:53.419Z,20
2016-07-16T06:57:53.460Z,24
2016-07-16T06:58:53.539Z,24
2016-07-16T06:59:53.453Z,20
2016-07-16T07:00:53.451Z,24
2016-07-16T07:01:53.447Z,24
2016-07-16T07:02:53.478Z,20
2016-07-16T07:03:53.514Z,24
2016-07-16T07:04:53.499Z,20
2016-07-16T07:05:53.497Z,24
2016-07-16T07:06:53.508Z,24
2016-07-16T07:07:53.531Z,24
2016-07-16T07:08:53.548Z,20
2016-07-16T07:09:53.531Z,24
2016-07-16T07:10:53.543Z,24
2016-07-16T07:11:53.574Z,24
2016-07-16T07:12:53.571Z,28
2016-07-16T07:13:53.563Z,24
2016-07-16T07:14:54.255Z,24
2016-07-16T07:15:53.592Z,24
2016-07-16T07:16:53.601Z,24
2016-07-16T07:17:53.634Z,24
2016-07-16T07:18:53.604Z,28
2016-07-16T07:19:53.625Z,20
2016-07-16T07:20:53.600Z,24
2016-07-16T07:21:53.609Z,24
2016-07-16T07:22:53.613Z,20
2016-07-16T07:23:53.634Z,24
2016-07-16T07:24:53.691Z,24
2016-07-16T07:25:53.680Z,24
2016-07-16T07:26:53.667Z,20
2016-07-16T07:27:53.666Z,20
2016-07-16T07:28:53.681Z,20
2016-07-16T07:29:53.690Z,20
2016-07-16T07:30:53.684Z,20
2016-07-16T07:31:53.714Z,16
2016-07-16T07:32:53.704Z,16
2016-07-16T07:33:53.743Z,20
2016-07-16T07:34:53.745Z,20
2016-07-16T07:35:53.734Z,20
2016-07-16T07:36:53.760Z,24
2016-07-16T07:37:53.760Z,24
2016-07-16T07:38:53.762Z,24
2016-07-16T07:39:53.782Z,24
2016-07-16T07:40:53.784Z,24
2016-07-16T07:41:53.767Z,24
2016-07-16T07:42:53.809Z,24
2016-07-16T07:43:53.809Z,24
2016-07-16T07:44:53.796Z,24
2016-07-16T07:45:53.820Z,24
2016-07-16T07:46:53.807Z,24
2016-07-16T07:47:54.544Z,24
2016-07-16T07:48:53.862Z,24
2016-07-16T07:49:53.858Z,24
2016-07-16T07:50:53.851Z,24
2016-07-16T07:51:53.845Z,24
2016-07-16T07:52:53.897Z,24
2016-07-16T07:53:53.879Z,24
2016-07-16T07:54:53.898Z,24
2016-07-16T07:55:53.908Z,24
2016-07-16T07:56:53.896Z,28
2016-07-16T07:57:53.918Z,28
2016-07-16T07:58:54.009Z,24
2016-07-16T07:59:53.916Z,24
2016-07-16T08:00:53.921Z,28
2016-07-16T08:01:53.940Z,28
2016-07-16T08:02:53.955Z,28
2016-07-16T08:03:53.953Z,24
2016-07-16T08:04:53.971Z,24
2016-07-16T08:05:53.957Z,28
2016-07-16T08:06:53.960Z,28
2016-07-16T08:07:53.985Z,28
2016-07-16T08:08:54.013Z,24
2016-07-16T08:09:53.987Z,24
2016-07-16T08:10:54.045Z,24
2016-07-16T08:11:54.037Z,28
2016-07-16T08:12:54.046Z,28
2016-07-16T08:13:54.032Z,28
2016-07-16T08:14:54.048Z,28
2016-07-16T08:15:54.065Z,28
2016-07-16T08:16:54.070Z,28
2016-07-16T08:17:54.075Z,28
2016-07-16T08:18:54.067Z,28
2016-07-16T08:19:54.064Z,28
2016-07-16T08:20:54.097Z,28
2016-07-16T08:21:54.094Z,24
2016-07-16T08:22:54.128Z,24
2016-07-16T08:23:54.118Z,24
2016-07-16T08:24:54.119Z,24
2016-07-16T08:25:54.137Z,24
2016-07-16T08:26:54.157Z,24
2016-07-16T08:27:54.141Z,28
2016-07-16T08:28:54.159Z,28
2016-07-16T08:29:54.176Z,28
2016-07-16T08:30:54.190Z,28
2016-07-16T08:31:54.170Z,32
2016-07-16T08:32:54.162Z,28
2016-07-16T08:33:54.210Z,32
2016-07-16T08:34:54.201Z,28
2016-07-16T08:35:54.203Z,28
2016-07-16T08:36:54.207Z,32
2016-07-16T08:37:54.235Z,32
2016-07-16T08:38:54.255Z,32
2016-07-16T08:39:54.268Z,32
2016-07-16T08:40:54.270Z,36
2016-07-16T08:41:54.268Z,32
2016-07-16T08:42:54.285Z,36
2016-07-16T08:43:54.283Z,32
2016-07-16T08:44:54.292Z,36
2016-07-16T08:45:54.313Z,32
2016-07-16T08:46:54.304Z,36
2016-07-16T08:47:54.321Z,36
2016-07-16T08:48:54.332Z,36
2016-07-16T08:49:54.317Z,36
2016-07-16T08:50:54.351Z,36
2016-07-16T08:51:54.353Z,40
2016-07-16T08:52:54.347Z,48
2016-07-16T08:53:54.361Z,40
2016-07-16T08:54:54.360Z,36
2016-07-16T08:55:54.365Z,36
2016-07-16T08:56:54.392Z,40
2016-07-16T08:57:54.393Z,44
2016-07-16T08:58:54.461Z,36
2016-07-16T08:59:54.426Z,32
2016-07-16T09:00:54.414Z,36
2016-07-16T09:01:54.437Z,32
2016-07-16T09:02:54.437Z,36
2016-07-16T09:03:54.429Z,40
2016-07-16T09:04:54.451Z,28
2016-07-16T09:05:54.463Z,32
2016-07-16T09:06:54.443Z,32
2016-07-16T09:07:54.465Z,24
2016-07-16T09:08:54.476Z,24
2016-07-16T09:09:54.494Z,20
2016-07-16T09:10:54.502Z,20
2016-07-16T09:11:54.498Z,32
2016-07-16T09:12:54.497Z,36
2016-07-16T09:13:54.534Z,36
2016-07-16T09:14:54.537Z,40
2016-07-16T09:15:54.547Z,28
2016-07-16T09:16:54.555Z,24
2016-07-16T09:17:54.559Z,20
2016-07-16T09:18:54.568Z,20
2016-07-16T09:19:54.568Z,24
2016-07-16T09:20:54.566Z,20
2016-07-16T09:21:54.584Z,20
2016-07-16T09:22:54.607Z,24
2016-07-16T09:23:54.599Z,20
2016-07-16T09:24:54.610Z,24
2016-07-16T09:25:54.614Z,24
2016-07-16T09:26:54.611Z,20
2016-07-16T09:27:54.619Z,20
2016-07-16T09:28:54.654Z,20
2016-07-16T09:29:54.639Z,20
2016-07-16T09:30:54.654Z,16
2016-07-16T09:31:54.663Z,20
2016-07-16T09:32:54.665Z,20
2016-07-16T09:33:54.679Z,16
2016-07-16T09:34:54.701Z,16
2016-07-16T09:35:54.694Z,20
2016-07-16T09:36:54.731Z,24
2016-07-16T09:37:54.716Z,32
2016-07-16T09:38:54.735Z,36
2016-07-16T09:39:55.419Z,44
2016-07-16T09:40:54.768Z,44
2016-07-16T09:41:54.752Z,44
2016-07-16T09:42:54.751Z,36
2016-07-16T09:43:55.465Z,28
2016-07-16T09:44:54.785Z,24
2016-07-16T09:45:54.767Z,24
2016-07-16T09:46:54.795Z,20
2016-07-16T09:47:54.812Z,20
2016-07-16T09:48:54.806Z,20
2016-07-16T09:49:54.814Z,20
2016-07-16T09:50:54.807Z,16
2016-07-16T09:51:54.810Z,12
2016-07-16T09:52:54.836Z,16
2016-07-16T09:53:54.858Z,12
2016-07-16T09:54:54.836Z,16
2016-07-16T09:55:54.864Z,12
2016-07-16T09:56:54.877Z,12
2016-07-16T09:57:54.882Z,12
2016-07-16T09:58:54.935Z,12
2016-07-16T09:59:54.911Z,12
2016-07-16T10:00:54.903Z,12
2016-07-16T10:01:54.897Z,12
2016-07-16T10:02:54.919Z,12
2016-07-16T10:03:54.915Z,16
2016-07-16T10:04:54.929Z,16
2016-07-16T10:05:54.945Z,16
2016-07-16T10:06:54.961Z,16
2016-07-16T10:07:54.950Z,16
2016-07-16T10:08:54.977Z,20
2016-07-16T10:09:54.997Z,16
2016-07-16T10:10:54.989Z,20
2016-07-16T10:11:55.011Z,20
2016-07-16T10:12:54.993Z,20
2016-07-16T10:13:55.001Z,20
2016-07-16T10:14:54.995Z,20
2016-07-16T10:15:55.001Z,24
2016-07-16T10:16:55.037Z,44
2016-07-16T10:17:55.025Z,48
2016-07-16T10:18:55.074Z,52
2016-07-16T10:19:55.053Z,52
2016-07-16T10:20:55.056Z,52
2016-07-16T10:21:55.066Z,40
2016-07-16T10:22:55.062Z,52
2016-07-16T10:23:55.082Z,52
2016-07-16T10:24:55.102Z,48
2016-07-16T10:25:55.107Z,36
2016-07-16T10:26:55.134Z,32
2016-07-16T10:27:55.146Z,28
2016-07-16T10:28:55.132Z,32
2016-07-16T10:29:55.156Z,52
2016-07-16T10:30:55.140Z,40
2016-07-16T10:31:55.144Z,28
2016-07-16T10:32:55.174Z,28
2016-07-16T10:33:55.165Z,28
2016-07-16T10:34:55.184Z,28
2016-07-16T10:35:55.189Z,28
2016-07-16T10:36:55.190Z,28
2016-07-16T10:37:55.177Z,28
2016-07-16T10:38:55.194Z,20
2016-07-16T10:39:55.209Z,24
2016-07-16T10:40:55.238Z,20
2016-07-16T10:41:55.225Z,24
2016-07-16T10:42:55.212Z,20
2016-07-16T10:43:55.238Z,20
2016-07-16T10:44:55.276Z,20
2016-07-16T10:45:55.272Z,24
2016-07-16T10:46:55.262Z,24
2016-07-16T10:47:55.286Z,24
2016-07-16T10:48:55.292Z,32
2016-07-16T10:49:55.999Z,48
2016-07-16T10:50:55.302Z,40
2016-07-16T10:51:55.307Z,52
2016-07-16T10:52:55.311Z,52
2016-07-16T10:53:55.341Z,36
2016-07-16T10:54:55.341Z,32
2016-07-16T10:55:55.336Z,36
2016-07-16T10:56:56.034Z,36
2016-07-16T10:57:55.355Z,36
2016-07-16T10:58:55.415Z,44
2016-07-16T10:59:55.366Z,36
2016-07-16T11:02:08.236Z,28
2016-07-16T11:03:08.555Z,28
2016-07-16T11:04:08.247Z,28
2016-07-16T11:05:08.239Z,32
2016-07-16T11:06:08.241Z,32
2016-07-16T11:07:08.280Z,36
2016-07-16T11:08:08.270Z,60
2016-07-16T11:09:08.276Z,60
2016-07-16T11:10:08.289Z,60
2016-07-16T11:11:08.285Z,52
2016-07-16T11:12:08.309Z,36
2016-07-16T11:13:08.322Z,56
2016-07-16T11:14:09.015Z,56
2016-07-16T11:15:08.324Z,40
2016-07-16T11:16:08.536Z,52
2016-07-16T11:17:08.357Z,40
2016-07-16T11:18:08.348Z,56
2016-07-16T11:19:08.551Z,48
2016-07-16T11:20:08.380Z,40
2016-07-16T11:21:08.350Z,52
2016-07-16T11:22:08.387Z,48
2016-07-16T11:23:08.420Z,32
2016-07-16T11:24:08.374Z,32
2016-07-16T11:25:08.408Z,28
2016-07-16T11:26:08.621Z,32
2016-07-16T11:27:08.404Z,32
2016-07-16T11:28:08.422Z,40
2016-07-16T11:29:08.450Z,56
2016-07-16T11:30:08.646Z,56
2016-07-16T11:31:08.431Z,56
2016-07-16T11:32:08.771Z,56
2016-07-16T11:33:08.471Z,52
2016-07-16T11:34:08.460Z,56
2016-07-16T11:35:08.663Z,56
2016-07-16T11:36:08.475Z,56
2016-07-16T11:37:08.518Z,52
2016-07-16T11:38:08.523Z,52
2016-07-16T11:39:08.511Z,52
2016-07-16T11:40:08.788Z,52
2016-07-16T11:41:08.861Z,36
2016-07-16T11:42:08.545Z,40
2016-07-16T11:43:08.553Z,40
2016-07-16T11:44:08.742Z,28
2016-07-16T11:45:08.590Z,28
2016-07-16T11:46:08.557Z,28
2016-07-16T11:47:08.594Z,36
2016-07-16T11:48:08.785Z,28
2016-07-16T11:49:08.574Z,28
2016-07-16T11:50:08.613Z,28
2016-07-16T11:51:08.624Z,24
2016-07-16T11:52:08.855Z,24
2016-07-16T11:53:08.647Z,24
2016-07-16T11:54:08.666Z,20
2016-07-16T11:55:08.882Z,20
2016-07-16T11:56:08.675Z,16
2016-07-16T11:57:09.375Z,16
2016-07-16T11:58:08.822Z,12
2016-07-16T11:59:08.670Z,12
2016-07-16T12:00:08.744Z,12
2016-07-16T12:01:08.696Z,12
2016-07-16T12:02:08.765Z,16
2016-07-16T12:03:08.740Z,16
2016-07-16T12:04:08.750Z,16
2016-07-16T12:05:08.733Z,12
2016-07-16T12:06:08.901Z,16
2016-07-16T12:07:08.908Z,16
2016-07-16T12:08:09.467Z,16
2016-07-16T12:09:08.792Z,16
2016-07-16T12:10:08.838Z,20
2016-07-16T12:11:08.826Z,20
2016-07-16T12:12:08.796Z,20
2016-07-16T12:13:08.810Z,24
2016-07-16T12:14:08.810Z,24
2016-07-16T12:15:08.814Z,24
2016-07-16T12:16:08.838Z,28
2016-07-16T12:17:08.900Z,32
2016-07-16T12:18:08.852Z,36
2016-07-16T12:19:08.841Z,52
2016-07-16T12:20:08.870Z,52
2016-07-16T12:21:09.057Z,52
2016-07-16T12:22:08.880Z,56
2016-07-16T12:23:08.933Z,52
2016-07-16T12:24:08.904Z,52
2016-07-16T12:25:08.888Z,52
2016-07-16T12:26:08.941Z,52
2016-07-16T12:27:08.948Z,52
2016-07-16T12:28:08.938Z,48
2016-07-16T12:29:08.938Z,48
2016-07-16T12:30:09.052Z,48
2016-07-16T12:31:08.964Z,48
2016-07-16T12:32:08.983Z,48
2016-07-16T12:33:08.975Z,48
2016-07-16T12:34:09.004Z,48
2016-07-16T12:35:09.046Z,44
2016-07-16T12:36:08.999Z,24
2016-07-16T12:37:08.986Z,24
2016-07-16T12:38:09.024Z,24
2016-07-16T12:39:09.003Z,20
2016-07-16T12:40:09.038Z,20
2016-07-16T12:41:09.019Z,24
2016-07-16T12:42:09.038Z,24
2016-07-16T12:43:09.078Z,24
2016-07-16T12:44:09.073Z,24
2016-07-16T12:45:09.049Z,24
2016-07-16T12:46:09.096Z,28
2016-07-16T12:47:09.095Z,24
2016-07-16T12:48:09.123Z,28
2016-07-16T12:49:09.108Z,24
2016-07-16T12:50:09.136Z,24
2016-07-16T12:51:09.127Z,24
2016-07-16T12:52:09.110Z,20
2016-07-16T12:53:09.158Z,20
2016-07-16T12:54:09.167Z,20
2016-07-16T12:55:09.158Z,24
2016-07-16T12:56:09.163Z,24
2016-07-16T12:57:09.187Z,24
2016-07-16T12:58:09.185Z,20
2016-07-16T12:59:09.387Z,28
2016-07-16T13:00:09.197Z,24
2016-07-16T13:01:09.219Z,24
2016-07-16T13:02:09.240Z,28
2016-07-16T13:03:09.219Z,36
2016-07-16T13:04:09.229Z,28
2016-07-16T13:05:09.259Z,28
2016-07-16T13:06:09.266Z,28
2016-07-16T13:07:09.269Z,28
2016-07-16T13:08:09.256Z,28
2016-07-16T13:09:09.301Z,28
2016-07-16T13:10:09.299Z,48
2016-07-16T13:11:09.291Z,48
2016-07-16T13:12:09.319Z,48
2016-07-16T13:13:09.306Z,48
2016-07-16T13:14:09.345Z,36
2016-07-16T13:15:09.335Z,28
2016-07-16T13:16:09.329Z,40
2016-07-16T13:17:09.356Z,44
2016-07-16T13:18:09.368Z,44
2016-07-16T13:19:09.366Z,44
2016-07-16T13:20:09.377Z,44
2016-07-16T13:21:09.395Z,44
2016-07-16T13:22:09.398Z,44
2016-07-16T13:23:09.407Z,44
2016-07-16T13:24:10.108Z,44
2016-07-16T13:25:09.411Z,44
2016-07-16T13:26:09.449Z,44
2016-07-16T13:27:09.435Z,44
2016-07-16T13:28:09.440Z,40
2016-07-16T13:29:09.453Z,40
2016-07-16T13:30:09.443Z,40
2016-07-16T13:31:09.439Z,40
2016-07-16T13:32:09.483Z,40
2016-07-16T13:33:09.483Z,44
2016-07-16T13:34:09.495Z,44
2016-07-16T13:35:09.494Z,40
2016-07-16T13:36:09.506Z,36
2016-07-16T13:37:10.222Z,36
2016-07-16T13:38:09.505Z,40
2016-07-16T13:39:09.539Z,40
2016-07-16T13:40:09.520Z,40
2016-07-16T13:41:09.543Z,40
2016-07-16T13:42:09.598Z,40
2016-07-16T13:43:09.580Z,40
2016-07-16T13:44:09.576Z,40
2016-07-16T13:45:09.573Z,24
2016-07-16T13:46:09.594Z,24
2016-07-16T13:47:09.612Z,20
2016-07-16T13:48:09.635Z,20
2016-07-16T13:49:09.606Z,16
2016-07-16T13:50:09.630Z,36
2016-07-16T13:51:09.627Z,36
2016-07-16T13:52:09.661Z,36
2016-07-16T13:53:09.642Z,40
2016-07-16T13:54:09.659Z,36
2016-07-16T13:55:09.691Z,40
2016-07-16T13:56:09.696Z,40
2016-07-16T13:57:09.698Z,40
2016-07-16T13:58:09.715Z,40
2016-07-16T13:59:09.705Z,36
2016-07-16T14:00:09.694Z,36
2016-07-16T14:01:09.710Z,36
2016-07-16T14:02:09.734Z,36
2016-07-16T14:03:09.740Z,32
2016-07-16T14:04:09.763Z,32
2016-07-16T14:05:09.745Z,24
2016-07-16T14:06:09.742Z,24
2016-07-16T14:07:09.771Z,24
2016-07-16T14:08:09.790Z,28
2016-07-16T14:09:09.784Z,32
2016-07-16T14:10:09.830Z,20
2016-07-16T14:11:09.800Z,32
2016-07-16T14:12:09.798Z,32
2016-07-16T14:13:09.843Z,36
2016-07-16T14:14:09.825Z,36
2016-07-16T14:15:09.824Z,32
2016-07-16T14:16:09.870Z,36
2016-07-16T14:17:09.832Z,36
2016-07-16T14:18:10.552Z,36
2016-07-16T14:19:09.856Z,36
2016-07-16T14:20:09.889Z,36
2016-07-16T14:21:09.861Z,24
2016-07-16T14:22:09.889Z,20
2016-07-16T14:23:09.912Z,28
2016-07-16T14:24:09.925Z,20
2016-07-16T14:25:09.928Z,20
2016-07-16T14:26:09.936Z,36
2016-07-16T14:27:10.653Z,28
2016-07-16T14:28:09.948Z,20
2016-07-16T14:29:09.954Z,20
2016-07-16T14:30:09.955Z,20